createdAt,value
2023-02-21T00:00:20.306Z,95138.38
2023-02-21T00:02:46.694Z,95144.72
2023-02-21T00:05:13.153Z,95140.16
2023-02-21T00:07:39.688Z,95138.09
2023-02-21T00:10:06.068Z,95134.38
2023-02-21T00:12:32.458Z,95135.06
2023-02-21T00:14:58.875Z,95139.78
2023-02-21T00:17:25.292Z,95132.03
2023-02-21T00:19:51.702Z,95132.69
2023-02-21T00:22:18.114Z,95128.28
2023-02-21T00:24:44.513Z,95128.00
2023-02-21T00:27:10.927Z,95122.19
2023-02-21T00:29:37.357Z,95114.84
2023-02-21T00:32:03.744Z,95113.72
2023-02-21T00:34:30.138Z,95113.34
2023-02-21T00:36:56.549Z,95101.69
2023-02-21T00:39:22.944Z,95104.88
2023-02-21T00:41:49.328Z,95100.88
2023-02-21T00:44:15.707Z,95105.16
2023-02-21T00:46:42.105Z,95102.94
2023-02-21T00:49:08.524Z,95104.31
2023-02-21T00:51:34.925Z,95105.56
2023-02-21T00:54:01.335Z,95105.19
2023-02-21T00:56:27.780Z,95097.84
2023-02-21T00:58:54.173Z,95095.66
2023-02-21T01:01:20.620Z,95102.16
2023-02-21T01:03:47.136Z,95092.88
2023-02-21T01:06:13.532Z,95094.28
2023-02-21T01:08:39.930Z,95092.06
2023-02-21T01:11:06.341Z,95091.41
2023-02-21T01:13:32.812Z,95093.03
2023-02-21T01:15:59.271Z,95092.22
2023-02-21T01:18:25.696Z,95095.81
2023-02-21T01:20:52.114Z,95094.28
2023-02-21T01:23:18.508Z,95098.59
2023-02-21T01:25:44.917Z,95084.91
2023-02-21T01:28:11.303Z,95090.16
2023-02-21T01:30:37.773Z,95082.28
2023-02-21T01:33:04.240Z,95081.59
2023-02-21T01:35:30.620Z,95086.44
2023-02-21T01:37:57.012Z,95075.34
2023-02-21T01:40:23.429Z,95079.94
2023-02-21T01:42:49.805Z,95074.13
2023-02-21T01:45:16.221Z,95070.53
2023-02-21T01:47:42.621Z,95075.09
2023-02-21T01:50:08.988Z,95074.81
2023-02-21T01:52:35.397Z,95071.09
2023-02-21T01:55:01.795Z,95068.59
2023-02-21T01:57:28.186Z,95068.03
2023-02-21T01:59:54.585Z,95071.50
2023-02-21T02:02:20.979Z,95066.50
2023-02-21T02:04:47.486Z,95058.38
2023-02-21T02:07:13.958Z,95061.41
2023-02-21T02:09:40.352Z,95057.13
2023-02-21T02:12:06.734Z,95058.09
2023-02-21T02:14:33.138Z,95054.94
2023-02-21T02:16:59.574Z,95051.59
2023-02-21T02:19:25.991Z,95042.78
2023-02-21T02:21:52.411Z,95041.53
2023-02-21T02:24:18.842Z,95039.16
2023-02-21T02:26:45.241Z,95037.25
2023-02-21T02:29:11.650Z,95043.69
2023-02-21T02:31:38.329Z,95047.44
2023-02-21T02:34:04.797Z,95035.41
2023-02-21T02:36:31.179Z,95044.22
2023-02-21T02:38:57.594Z,95035.66
2023-02-21T02:41:23.992Z,95030.28
2023-02-21T02:43:50.368Z,95034.47
2023-02-21T02:46:16.798Z,95027.84
2023-02-21T02:48:43.183Z,95033.50
2023-02-21T02:51:09.639Z,95029.72
2023-02-21T02:53:36.101Z,95029.72
2023-02-21T02:56:02.526Z,95029.72
2023-02-21T02:58:28.946Z,95027.22
2023-02-21T03:00:55.361Z,95027.94
2023-02-21T03:03:21.807Z,95032.22
2023-02-21T03:05:48.198Z,95022.81
2023-02-21T03:08:14.595Z,95025.59
2023-02-21T03:10:40.994Z,95023.09
2023-02-21T03:13:07.384Z,95024.19
2023-02-21T03:15:33.830Z,95020.75
2023-02-21T03:18:00.211Z,95025.00
2023-02-21T03:20:26.636Z,95028.88
2023-02-21T03:22:53.043Z,95022.94
2023-02-21T03:25:19.438Z,95017.84
2023-02-21T03:27:45.810Z,95022.66
2023-02-21T03:30:12.235Z,95021.13
2023-02-21T03:32:38.670Z,95015.19
2023-02-21T03:35:05.054Z,95026.78
2023-02-21T03:37:31.429Z,95018.22
2023-02-21T03:39:57.856Z,95022.75
2023-02-21T03:42:24.324Z,95021.25
2023-02-21T03:44:50.719Z,95022.47
2023-02-21T03:47:17.103Z,95023.47
2023-02-21T03:49:43.571Z,95025.66
2023-02-21T03:52:09.944Z,95016.66
2023-02-21T03:54:36.357Z,95024.69
2023-02-21T03:57:02.789Z,95016.25
2023-02-21T03:59:29.229Z,95011.13
2023-02-21T04:01:55.673Z,95018.31
2023-02-21T04:04:22.087Z,95014.84
2023-02-21T04:06:48.486Z,95008.06
2023-02-21T04:09:14.870Z,95014.31
2023-02-21T04:11:41.266Z,95015.09
2023-02-21T04:14:07.659Z,95012.34
2023-02-21T04:16:34.078Z,95018.56
2023-02-21T04:19:00.493Z,95016.22
2023-02-21T04:21:26.888Z,95013.84
2023-02-21T04:23:53.272Z,95023.78
2023-02-21T04:26:19.682Z,95029.28
2023-02-21T04:28:46.172Z,95041.81
2023-02-21T04:31:12.759Z,95026.22
2023-02-21T04:33:39.257Z,95032.97
2023-02-21T04:36:05.636Z,95029.75
2023-02-21T04:38:32.007Z,95033.88
2023-02-21T04:40:58.435Z,95039.94
2023-02-21T04:43:24.845Z,95039.38
2023-02-21T04:45:51.283Z,95037.69
2023-02-21T04:48:17.746Z,95037.13
2023-02-21T04:50:44.147Z,95034.91
2023-02-21T04:53:10.576Z,95039.72
2023-02-21T04:55:36.962Z,95040.06
2023-02-21T04:58:03.344Z,95039.78
2023-02-21T05:00:29.752Z,95042.91
2023-02-21T05:02:56.154Z,95044.94
2023-02-21T05:05:22.545Z,95043.44
2023-02-21T05:07:48.994Z,95041.50
2023-02-21T05:10:15.387Z,95039.19
2023-02-21T05:12:41.783Z,95037.41
2023-02-21T05:15:08.186Z,95034.91
2023-02-21T05:17:34.570Z,95031.50
2023-02-21T05:20:00.951Z,95020.03
2023-02-21T05:22:27.502Z,95021.97
2023-02-21T05:24:53.964Z,95021.97
2023-02-21T05:27:20.425Z,95013.28
2023-02-21T05:29:46.842Z,95010.69
2023-02-21T05:32:13.313Z,95018.66
2023-02-21T05:34:39.757Z,95016.03
2023-02-21T05:37:06.177Z,95020.31
2023-02-21T05:39:32.603Z,95012.34
2023-02-21T05:41:59.073Z,95022.97
2023-02-21T05:44:25.492Z,95015.25
2023-02-21T05:46:51.904Z,95009.31
2023-02-21T05:49:18.322Z,95018.97
2023-02-21T05:51:44.717Z,95018.25
2023-02-21T05:54:11.112Z,95018.25
2023-02-21T05:56:37.509Z,95018.13
2023-02-21T05:59:03.894Z,95016.34
2023-02-21T06:01:30.337Z,95023.44
2023-02-21T06:03:56.746Z,95018.59
2023-02-21T06:06:23.160Z,95027.53
2023-02-21T06:08:49.628Z,95020.91
2023-02-21T06:11:16.369Z,95021.72
2023-02-21T06:13:42.950Z,95021.72
2023-02-21T06:16:09.388Z,95021.97
2023-02-21T06:18:35.834Z,95026.50
2023-02-21T06:21:02.230Z,95016.16
2023-02-21T06:23:28.615Z,95017.13
2023-02-21T06:25:55.045Z,95022.22
2023-02-21T06:28:21.450Z,95021.41
2023-02-21T06:30:47.939Z,95012.59
2023-02-21T06:33:14.444Z,95020.56
2023-02-21T06:35:40.849Z,95024.97
2023-02-21T06:38:07.243Z,95024.03
2023-02-21T06:40:33.653Z,95028.81
2023-02-21T06:43:00.037Z,95033.31
2023-02-21T06:45:26.503Z,95028.25
2023-02-21T06:47:52.908Z,95023.25
2023-02-21T06:50:19.309Z,95025.03
2023-02-21T06:52:45.704Z,95021.59
2023-02-21T06:55:12.071Z,95025.16
2023-02-21T06:57:38.457Z,95038.72
2023-02-21T07:00:04.935Z,95035.00
2023-02-21T07:02:31.333Z,95037.38
2023-02-21T07:04:57.797Z,95039.59
2023-02-21T07:07:24.221Z,95030.53
2023-02-21T07:09:50.630Z,95036.09
2023-02-21T07:12:17.050Z,95028.41
2023-02-21T07:14:43.470Z,95038.25
2023-02-21T07:17:09.860Z,95035.38
2023-02-21T07:19:36.269Z,95040.78
2023-02-21T07:22:02.673Z,95032.41
2023-02-21T07:24:29.084Z,95041.16
2023-02-21T07:26:55.487Z,95037.06
2023-02-21T07:29:21.904Z,95033.91
2023-02-21T07:31:48.436Z,95033.28
2023-02-21T07:34:14.899Z,95027.34
2023-02-21T07:36:41.319Z,95034.69
2023-02-21T07:39:07.873Z,95028.22
2023-02-21T07:41:34.262Z,95023.28
2023-02-21T07:44:00.694Z,95018.44
2023-02-21T07:46:27.166Z,95024.13
2023-02-21T07:48:53.676Z,95028.16
2023-02-21T07:51:20.486Z,95023.34
2023-02-21T07:53:46.904Z,95021.13
2023-02-21T07:56:13.301Z,95019.75
2023-02-21T07:58:39.705Z,95026.38
2023-02-21T08:01:06.144Z,95021.56
2023-02-21T08:03:32.584Z,95021.97
2023-02-21T08:05:58.990Z,95027.53
2023-02-21T08:08:25.416Z,95023.72
2023-02-21T08:10:51.806Z,95028.25
2023-02-21T08:13:18.201Z,95030.47
2023-02-21T08:15:44.756Z,95024.66
2023-02-21T08:18:11.214Z,95017.91
2023-02-21T08:20:37.655Z,95020.38
2023-02-21T08:23:04.044Z,95019.84
2023-02-21T08:25:30.467Z,95020.25
2023-02-21T08:27:56.861Z,95026.75
2023-02-21T08:30:23.345Z,95025.34
2023-02-21T08:32:49.775Z,95030.72
2023-02-21T08:35:16.169Z,95029.34
2023-02-21T08:37:42.571Z,95032.09
2023-02-21T08:40:08.999Z,95035.97
2023-02-21T08:42:35.406Z,95038.03
2023-02-21T08:45:01.908Z,95029.28
2023-02-21T08:47:28.322Z,95037.28
2023-02-21T08:49:54.771Z,95032.56
2023-02-21T08:52:21.217Z,95023.28
2023-02-21T08:54:47.625Z,95021.72
2023-02-21T08:57:14.017Z,95023.75
2023-02-21T08:59:40.466Z,95026.34
2023-02-21T09:02:06.941Z,95023.81
2023-02-21T09:04:33.351Z,95020.94
2023-02-21T09:06:59.726Z,95021.13
2023-02-21T09:09:26.130Z,95016.00
2023-02-21T09:11:52.542Z,95010.53
2023-02-21T09:14:18.916Z,95007.31
2023-02-21T09:16:47.467Z,95005.75
2023-02-21T09:19:14.273Z,95008.44
2023-02-21T09:21:40.677Z,95004.09
2023-02-21T09:24:07.083Z,95001.69
2023-02-21T09:26:33.492Z,95001.06
2023-02-21T09:28:59.927Z,95004.09
2023-02-21T09:31:26.484Z,95000.84
2023-02-21T09:33:53.550Z,94994.16
2023-02-21T09:36:20.121Z,94999.03
2023-02-21T09:38:46.602Z,94997.72
2023-02-21T09:41:13.567Z,94986.88
2023-02-21T09:43:40.250Z,94989.72
2023-02-21T09:46:06.744Z,94984.81
2023-02-21T09:48:34.133Z,94981.72
2023-02-21T09:51:01.670Z,94975.69
2023-02-21T09:53:28.281Z,94977.44
2023-02-21T09:55:55.217Z,94977.94
2023-02-21T09:58:23.472Z,94971.06
2023-02-21T10:00:50.166Z,94968.94
2023-02-21T10:03:17.676Z,94962.72
2023-02-21T10:05:44.274Z,94965.88
2023-02-21T10:08:11.844Z,94963.06
2023-02-21T10:10:38.290Z,94963.59
2023-02-21T10:13:04.722Z,94959.66
2023-02-21T10:15:31.622Z,94949.13
2023-02-21T10:17:58.201Z,94951.28
2023-02-21T10:20:24.657Z,94934.81
2023-02-21T10:22:51.052Z,94951.31
2023-02-21T10:25:17.963Z,94941.63
2023-02-21T10:27:44.577Z,94942.16
2023-02-21T10:30:11.283Z,94933.25
2023-02-21T10:32:38.845Z,94926.22
2023-02-21T10:35:06.458Z,94924.59
2023-02-21T10:37:34.085Z,94924.91
2023-02-21T10:40:01.690Z,94923.13
2023-02-21T10:42:28.518Z,94921.66
2023-02-21T10:44:55.871Z,94925.59
2023-02-21T10:47:22.536Z,94928.75
2023-02-21T10:49:49.358Z,94922.00
2023-02-21T10:52:16.677Z,94918.22
2023-02-21T10:54:44.279Z,94918.53
2023-02-21T10:57:11.099Z,94910.16
2023-02-21T10:59:37.523Z,94907.84
2023-02-21T11:02:05.083Z,94900.06
2023-02-21T11:04:32.643Z,94899.41
2023-02-21T11:06:59.251Z,94895.63
2023-02-21T11:09:25.829Z,94886.34
2023-02-21T11:11:52.404Z,94880.56
2023-02-21T11:14:19.997Z,94873.78
2023-02-21T11:16:47.592Z,94874.13
2023-02-21T11:19:13.989Z,94860.88
2023-02-21T11:21:40.756Z,94858.88
2023-02-21T11:24:07.413Z,94854.56
2023-02-21T11:26:34.952Z,94843.66
2023-02-21T11:29:01.599Z,94837.19
2023-02-21T11:31:28.330Z,94834.22
2023-02-21T11:33:55.798Z,94839.97
2023-02-21T11:36:23.386Z,94831.22
2023-02-21T11:38:50.219Z,94830.22
2023-02-21T11:41:16.912Z,94825.75
2023-02-21T11:43:44.730Z,94824.56
2023-02-21T11:46:13.820Z,94810.19
2023-02-21T11:48:41.347Z,94812.31
2023-02-21T11:51:07.827Z,94804.84
2023-02-21T11:53:34.537Z,94799.06
2023-02-21T11:56:03.131Z,94794.06
2023-02-21T11:58:29.536Z,94790.91
2023-02-21T12:00:56.051Z,94792.19
2023-02-21T12:03:22.518Z,94788.19
2023-02-21T12:05:49.534Z,94787.84
2023-02-21T12:08:17.100Z,94782.56
2023-02-21T12:10:44.691Z,94784.22
2023-02-21T12:13:11.085Z,94783.38
2023-02-21T12:15:37.898Z,94775.91
2023-02-21T12:18:04.875Z,94776.19
2023-02-21T12:20:31.344Z,94765.28
2023-02-21T12:22:58.649Z,94765.56
2023-02-21T12:25:26.243Z,94760.59
2023-02-21T12:27:52.679Z,94755.81
2023-02-21T12:30:19.160Z,94756.44
2023-02-21T12:32:45.617Z,94741.88
2023-02-21T12:35:12.002Z,94744.69
2023-02-21T12:37:39.197Z,94742.50
2023-02-21T12:40:06.798Z,94728.38
2023-02-21T12:42:33.366Z,94726.03
2023-02-21T12:45:00.278Z,94729.78
2023-02-21T12:47:26.904Z,94725.44
2023-02-21T12:49:53.312Z,94718.78
2023-02-21T12:52:19.728Z,94712.31
2023-02-21T12:54:46.145Z,94711.59
2023-02-21T12:57:12.943Z,94711.84
2023-02-21T12:59:39.550Z,94713.47
2023-02-21T13:02:07.193Z,94707.66
2023-02-21T13:04:34.718Z,94701.88
2023-02-21T13:07:01.311Z,94701.53
2023-02-21T13:09:27.884Z,94696.69
2023-02-21T13:11:54.501Z,94688.38
2023-02-21T13:14:20.912Z,94685.34
2023-02-21T13:16:47.385Z,94682.81
2023-02-21T13:19:14.280Z,94682.44
2023-02-21T13:21:40.845Z,94675.84
2023-02-21T13:24:08.453Z,94666.31
2023-02-21T13:26:35.051Z,94675.00
2023-02-21T13:29:01.672Z,94667.31
2023-02-21T13:31:30.355Z,94668.84
2023-02-21T13:33:57.834Z,94663.63
2023-02-21T13:36:26.428Z,94661.22
2023-02-21T13:38:55.029Z,94662.31
2023-02-21T13:41:22.686Z,94654.00
2023-02-21T13:43:50.212Z,94658.91
2023-02-21T13:46:17.846Z,94657.72
2023-02-21T13:48:44.329Z,94647.13
2023-02-21T13:51:11.017Z,94649.59
2023-02-21T13:53:38.591Z,94642.06
2023-02-21T13:56:05.183Z,94637.59
2023-02-21T13:58:31.771Z,94636.56
2023-02-21T14:01:01.398Z,94633.53
2023-02-21T14:03:27.842Z,94630.31
2023-02-21T14:05:54.295Z,94626.31
2023-02-21T14:08:20.711Z,94625.75
2023-02-21T14:10:47.120Z,94624.41
2023-02-21T14:13:14.326Z,94626.28
2023-02-21T14:15:40.902Z,94624.78
2023-02-21T14:18:07.346Z,94620.94
2023-02-21T14:20:33.755Z,94619.00
2023-02-21T14:23:00.702Z,94621.75
2023-02-21T14:25:29.299Z,94617.75
2023-02-21T14:27:56.896Z,94619.25
2023-02-21T14:30:25.537Z,94610.28
2023-02-21T14:32:53.081Z,94614.16
2023-02-21T14:35:19.690Z,94612.56
2023-02-21T14:37:46.173Z,94608.72
2023-02-21T14:40:12.648Z,94604.22
2023-02-21T14:42:39.080Z,94603.38
2023-02-21T14:45:05.537Z,94604.41
2023-02-21T14:47:32.683Z,94597.44
2023-02-21T14:49:59.126Z,94592.13
2023-02-21T14:52:25.531Z,94595.19
2023-02-21T14:54:51.972Z,94588.19
2023-02-21T14:57:19.052Z,94589.41
2023-02-21T14:59:45.843Z,94586.31
2023-02-21T15:02:13.266Z,94576.28
2023-02-21T15:04:39.750Z,94588.31
2023-02-21T15:07:06.203Z,94583.78
2023-02-21T15:09:33.070Z,94588.25
2023-02-21T15:12:00.637Z,94584.72
2023-02-21T15:14:28.252Z,94581.41
2023-02-21T15:16:54.745Z,94578.28
2023-02-21T15:19:21.193Z,94575.97
2023-02-21T15:21:47.613Z,94576.28
2023-02-21T15:24:14.615Z,94569.31
2023-02-21T15:26:41.187Z,94583.34
2023-02-21T15:29:07.574Z,94572.84
2023-02-21T15:31:34.133Z,94577.69
2023-02-21T15:34:00.579Z,94574.81
2023-02-21T15:36:26.971Z,94566.78
2023-02-21T15:38:53.377Z,94560.22
2023-02-21T15:41:19.798Z,94563.41
2023-02-21T15:43:46.238Z,94563.00
2023-02-21T15:46:12.715Z,94561.09
2023-02-21T15:48:39.124Z,94560.66
2023-02-21T15:51:05.522Z,94555.16
2023-02-21T15:53:31.958Z,94548.59
2023-02-21T15:55:58.435Z,94549.59
2023-02-21T15:58:24.879Z,94551.56
2023-02-21T16:00:51.337Z,94546.88
2023-02-21T16:03:17.739Z,94545.19
2023-02-21T16:05:44.178Z,94536.66
2023-02-21T16:08:10.627Z,94537.22
2023-02-21T16:10:37.360Z,94539.06
2023-02-21T16:13:04.465Z,94538.81
2023-02-21T16:15:32.085Z,94532.38
2023-02-21T16:17:58.932Z,94537.41
2023-02-21T16:20:26.278Z,94542.63
2023-02-21T16:23:07.363Z,94544.59
2023-02-21T16:25:35.569Z,94540.38
2023-02-21T16:28:02.168Z,94540.50
2023-02-21T16:30:29.807Z,94543.91
2023-02-21T16:32:57.349Z,94546.63
2023-02-21T16:35:24.014Z,94544.28
2023-02-21T16:37:50.422Z,94548.53
2023-02-21T16:40:16.860Z,94541.69
2023-02-21T16:42:43.460Z,94549.91
2023-02-21T16:45:09.850Z,94542.22
2023-02-21T16:47:36.282Z,94542.31
2023-02-21T16:50:02.668Z,94543.22
2023-02-21T16:52:29.093Z,94543.28
2023-02-21T16:54:55.510Z,94540.91
2023-02-21T16:57:21.893Z,94540.34
2023-02-21T16:59:48.301Z,94541.59
2023-02-21T17:02:14.864Z,94540.81
2023-02-21T17:04:41.329Z,94540.09
2023-02-21T17:07:07.719Z,94540.94
2023-02-21T17:09:34.135Z,94545.66
2023-02-21T17:12:00.525Z,94544.41
2023-02-21T17:14:26.932Z,94543.53
2023-02-21T17:16:53.439Z,94542.09
2023-02-21T17:19:20.676Z,94539.47
2023-02-21T17:21:47.055Z,94536.69
2023-02-21T17:24:13.462Z,94545.13
2023-02-21T17:26:39.894Z,94538.72
2023-02-21T17:29:06.366Z,94537.28
2023-02-21T17:31:32.796Z,94538.47
2023-02-21T17:33:59.196Z,94548.06
2023-02-21T17:36:25.607Z,94543.00
2023-02-21T17:38:52.030Z,94545.81
2023-02-21T17:41:18.421Z,94556.03
2023-02-21T17:43:44.925Z,94558.84
2023-02-21T17:46:11.636Z,94551.25
2023-02-21T17:48:38.048Z,94559.84
2023-02-21T17:51:04.546Z,94555.22
2023-02-21T17:53:30.955Z,94556.69
2023-02-21T17:55:57.391Z,94560.44
2023-02-21T17:58:23.789Z,94558.88
2023-02-21T18:00:50.198Z,94552.59
2023-02-21T18:03:16.597Z,94553.59
2023-02-21T18:05:42.987Z,94551.84
2023-02-21T18:08:09.391Z,94557.44
2023-02-21T18:10:35.786Z,94559.75
2023-02-21T18:13:02.195Z,94552.16
2023-02-21T18:15:28.608Z,94564.38
2023-02-21T18:17:55.142Z,94563.91
2023-02-21T18:20:21.538Z,94560.75
2023-02-21T18:22:47.942Z,94558.78
2023-02-21T18:25:14.365Z,94563.09
2023-02-21T18:27:40.772Z,94559.16
2023-02-21T18:30:07.261Z,94563.28
2023-02-21T18:32:33.790Z,94564.78
2023-02-21T18:35:00.266Z,94562.63
2023-02-21T18:37:26.704Z,94567.06
2023-02-21T18:39:53.189Z,94566.09
2023-02-21T18:42:19.677Z,94568.25
2023-02-21T18:44:46.072Z,94570.22
2023-02-21T18:47:12.561Z,94565.09
2023-02-21T18:49:38.970Z,94564.97
2023-02-21T18:52:05.355Z,94554.72
2023-02-21T18:54:31.916Z,94558.47
2023-02-21T18:56:58.292Z,94557.81
2023-02-21T18:59:24.790Z,94555.06
2023-02-21T19:01:51.207Z,94554.41
2023-02-21T19:04:17.583Z,94551.59
2023-02-21T19:06:44.064Z,94549.06
2023-02-21T19:09:10.445Z,94550.22
2023-02-21T19:11:36.826Z,94547.38
2023-02-21T19:14:03.331Z,94549.72
2023-02-21T19:16:29.768Z,94548.53
2023-02-21T19:18:56.245Z,94555.16
2023-02-21T19:21:22.657Z,94556.00
2023-02-21T19:23:49.050Z,94548.91
2023-02-21T19:26:15.421Z,94546.41
2023-02-21T19:28:41.813Z,94553.03
2023-02-21T19:31:08.241Z,94548.75
2023-02-21T19:33:34.650Z,94555.19
2023-02-21T19:36:01.051Z,94550.91
2023-02-21T19:38:27.613Z,94558.94
2023-02-21T19:40:54.078Z,94557.75
2023-02-21T19:43:20.459Z,94554.13
2023-02-21T19:45:46.895Z,94555.31
2023-02-21T19:48:13.291Z,94554.03
2023-02-21T19:50:39.663Z,94557.84
2023-02-21T19:53:06.081Z,94558.50
2023-02-21T19:55:32.477Z,94559.69
2023-02-21T19:57:58.880Z,94562.66
2023-02-21T20:00:25.292Z,94557.72
2023-02-21T20:02:51.715Z,94555.75
2023-02-21T20:05:18.117Z,94556.56
2023-02-21T20:07:44.494Z,94555.44
2023-02-21T20:10:10.910Z,94558.56
2023-02-21T20:12:37.338Z,94556.09
2023-02-21T20:15:03.734Z,94558.38
2023-02-21T20:17:30.297Z,94563.66
2023-02-21T20:19:56.702Z,94558.69
2023-02-21T20:22:23.107Z,94556.53
2023-02-21T20:24:49.506Z,94556.22
2023-02-21T20:27:15.895Z,94564.28
2023-02-21T20:29:42.443Z,94561.81
2023-02-21T20:32:08.925Z,94556.88
2023-02-21T20:34:35.336Z,94555.53
2023-02-21T20:37:01.821Z,94555.09
2023-02-21T20:39:28.242Z,94554.59
2023-02-21T20:41:54.658Z,94560.38
2023-02-21T20:44:21.103Z,94554.44
2023-02-21T20:46:47.513Z,94557.75
2023-02-21T20:49:13.933Z,94553.16
2023-02-21T20:51:40.347Z,94550.19
2023-02-21T20:54:06.754Z,94552.31
2023-02-21T20:56:33.202Z,94555.91
2023-02-21T20:58:59.599Z,94556.38
2023-02-21T21:01:26.001Z,94543.84
2023-02-21T21:03:52.403Z,94546.53
2023-02-21T21:06:18.836Z,94540.59
2023-02-21T21:08:45.366Z,94540.94
2023-02-21T21:11:11.771Z,94535.84
2023-02-21T21:13:38.181Z,94542.75
2023-02-21T21:16:04.610Z,94539.94
2023-02-21T21:18:31.037Z,94536.50
2023-02-21T21:20:57.485Z,94537.84
2023-02-21T21:23:23.933Z,94537.00
2023-02-21T21:25:50.333Z,94538.00
2023-02-21T21:28:16.756Z,94532.72
2023-02-21T21:30:43.264Z,94531.53
2023-02-21T21:33:09.755Z,94530.41
2023-02-21T21:35:36.159Z,94535.72
2023-02-21T21:38:02.572Z,94531.06
2023-02-21T21:40:28.970Z,94525.94
2023-02-21T21:42:55.348Z,94523.63
2023-02-21T21:45:24.623Z,94525.47
2023-02-21T21:47:51.493Z,94515.41
2023-02-21T21:50:17.895Z,94521.50
2023-02-21T21:52:46.632Z,94515.41
2023-02-21T21:55:13.516Z,94521.19
2023-02-21T21:57:40.158Z,94518.72
2023-02-21T22:00:06.927Z,94519.69
2023-02-21T22:02:34.399Z,94517.03
2023-02-21T22:05:01.967Z,94518.22
2023-02-21T22:07:28.373Z,94522.34
2023-02-21T22:09:54.760Z,94514.75
2023-02-21T22:12:21.261Z,94515.78
2023-02-21T22:14:47.657Z,94515.81
2023-02-21T22:17:14.042Z,94519.75
2023-02-21T22:19:40.529Z,94519.09
2023-02-21T22:22:07.011Z,94520.28
2023-02-21T22:24:33.403Z,94514.16
2023-02-21T22:26:59.909Z,94514.00
2023-02-21T22:29:26.351Z,94505.94
2023-02-21T22:31:52.809Z,94508.41
2023-02-21T22:34:19.322Z,94513.53
2023-02-21T22:36:45.725Z,94513.03
2023-02-21T22:39:12.103Z,94514.84
2023-02-21T22:41:38.495Z,94513.88
2023-02-21T22:44:04.887Z,94514.19
2023-02-21T22:46:31.360Z,94513.50
2023-02-21T22:48:57.736Z,94508.44
2023-02-21T22:51:24.131Z,94503.31
2023-02-21T22:53:50.558Z,94511.88
2023-02-21T22:56:17.030Z,94509.75
2023-02-21T22:58:43.422Z,94508.59
2023-02-21T23:01:09.799Z,94499.19
2023-02-21T23:03:36.211Z,94499.38
2023-02-21T23:06:02.707Z,94490.97
2023-02-21T23:08:29.097Z,94494.75
2023-02-21T23:10:55.615Z,94493.75
2023-02-21T23:13:22.003Z,94498.06
2023-02-21T23:15:48.462Z,94492.78
2023-02-21T23:18:14.863Z,94488.97
2023-02-21T23:20:41.268Z,94489.31
2023-02-21T23:23:07.656Z,94498.34
2023-02-21T23:25:34.029Z,94489.97
2023-02-21T23:28:00.462Z,94492.91
2023-02-21T23:30:27.104Z,94486.00
2023-02-21T23:32:53.683Z,94485.97
2023-02-21T23:35:20.141Z,94485.00
2023-02-21T23:37:46.558Z,94488.75
2023-02-21T23:40:12.935Z,94489.56
2023-02-21T23:42:39.351Z,94487.47
2023-02-21T23:45:05.745Z,94483.81
2023-02-21T23:47:32.139Z,94494.81
2023-02-21T23:49:58.547Z,94491.00
2023-02-21T23:52:24.956Z,94495.13
2023-02-21T23:54:51.416Z,94495.59
2023-02-21T23:57:17.822Z,94496.72
2023-02-21T23:59:44.239Z,94490.00
